createdAt,value
2022-09-06T00:00:59.922Z,101102.94
2022-09-06T00:03:28.854Z,101101.44
2022-09-06T00:05:57.046Z,101102.50
2022-09-06T00:08:33.407Z,101100.81
2022-09-06T00:11:01.648Z,101111.28
2022-09-06T00:13:29.932Z,101113.22
2022-09-06T00:16:05.136Z,101124.38
2022-09-06T00:18:33.286Z,101149.50
2022-09-06T00:21:01.490Z,101189.66
2022-09-06T00:23:29.582Z,101186.88
2022-09-06T00:26:03.074Z,101180.44
2022-09-06T00:28:31.371Z,101198.44
2022-09-06T00:31:09.098Z,101222.09
2022-09-06T00:33:37.254Z,101212.84
2022-09-06T00:36:05.240Z,101208.53
2022-09-06T00:38:33.662Z,101217.97
2022-09-06T00:41:01.742Z,101228.47
2022-09-06T00:43:29.945Z,101224.81
2022-09-06T00:46:02.614Z,101225.06
2022-09-06T00:48:30.916Z,101226.97
2022-09-06T00:51:00.437Z,101236.22
2022-09-06T00:53:29.357Z,101257.69
2022-09-06T00:55:57.330Z,101254.03
2022-09-06T00:58:26.397Z,101248.44
2022-09-06T01:00:54.547Z,101258.56
2022-09-06T01:03:24.548Z,101250.38
2022-09-06T01:05:59.234Z,101250.38
2022-09-06T01:08:34.306Z,101254.03
2022-09-06T01:11:11.356Z,101242.00
2022-09-06T01:13:46.410Z,101231.03
2022-09-06T01:16:19.230Z,101241.34
2022-09-06T01:18:55.165Z,101234.03
2022-09-06T01:21:30.678Z,101228.66
2022-09-06T01:24:12.943Z,101228.03
2022-09-06T01:26:58.640Z,101223.69
2022-09-06T01:29:34.045Z,101212.75
2022-09-06T01:32:06.084Z,101205.63
2022-09-06T01:34:36.813Z,101185.66
2022-09-06T01:37:10.216Z,101200.03
2022-09-06T01:39:39.797Z,101209.03
2022-09-06T01:42:10.650Z,101218.66
2022-09-06T01:44:42.329Z,101201.69
2022-09-06T01:47:15.834Z,101190.06
2022-09-06T01:49:50.972Z,101171.81
2022-09-06T01:52:21.692Z,101170.72
2022-09-06T01:55:00.217Z,101192.56
2022-09-06T01:57:36.455Z,101207.97
2022-09-06T02:00:09.578Z,101231.53
2022-09-06T02:02:45.742Z,101241.38
2022-09-06T02:05:17.259Z,101234.47
2022-09-06T02:07:46.672Z,101240.47
2022-09-06T02:10:19.067Z,101241.94
2022-09-06T02:12:48.947Z,101235.06
2022-09-06T02:15:22.547Z,101222.56
2022-09-06T02:17:52.188Z,101234.97
2022-09-06T02:20:22.559Z,101216.09
2022-09-06T02:22:52.310Z,101215.59
2022-09-06T02:25:23.875Z,101206.13
2022-09-06T02:27:52.075Z,101202.03
2022-09-06T02:30:21.490Z,101197.25
2022-09-06T02:32:51.120Z,101200.63
2022-09-06T02:35:19.320Z,101192.03
2022-09-06T02:37:47.529Z,101185.50
2022-09-06T02:40:15.598Z,101186.97
2022-09-06T02:42:43.562Z,101181.16
2022-09-06T02:45:12.854Z,101182.59
2022-09-06T02:47:42.493Z,101170.34
2022-09-06T02:50:10.694Z,101174.56
2022-09-06T02:52:38.881Z,101173.44
2022-09-06T02:55:07.690Z,101162.88
2022-09-06T02:57:36.725Z,101156.88
2022-09-06T03:00:06.009Z,101158.53
2022-09-06T03:02:34.141Z,101161.72
2022-09-06T03:05:03.616Z,101150.31
2022-09-06T03:07:31.687Z,101144.44
2022-09-06T03:10:00.255Z,101132.16
2022-09-06T03:12:28.229Z,101127.00
2022-09-06T03:14:56.652Z,101136.13
2022-09-06T03:17:24.854Z,101133.72
2022-09-06T03:19:53.419Z,101143.53
2022-09-06T03:22:22.821Z,101134.72
2022-09-06T03:24:50.895Z,101143.66
2022-09-06T03:27:18.864Z,101150.47
2022-09-06T03:29:46.947Z,101147.88
2022-09-06T03:32:15.017Z,101157.50
2022-09-06T03:34:42.988Z,101151.25
2022-09-06T03:37:11.072Z,101161.53
2022-09-06T03:39:40.933Z,101162.38
2022-09-06T03:42:09.034Z,101146.94
2022-09-06T03:44:40.509Z,101149.03
2022-09-06T03:47:08.680Z,101150.09
2022-09-06T03:49:36.629Z,101162.31
2022-09-06T03:52:04.965Z,101159.03
2022-09-06T03:54:32.793Z,101162.00
2022-09-06T03:57:02.310Z,101158.34
2022-09-06T03:59:30.644Z,101153.22
2022-09-06T04:01:58.757Z,101145.06
2022-09-06T04:04:26.813Z,101147.16
2022-09-06T04:06:54.885Z,101148.41
2022-09-06T04:09:23.568Z,101142.19
2022-09-06T04:11:51.661Z,101137.69
2022-09-06T04:14:21.052Z,101140.63
2022-09-06T04:16:49.043Z,101143.59
2022-09-06T04:19:17.084Z,101127.09
2022-09-06T04:21:45.407Z,101142.25
2022-09-06T04:24:13.651Z,101133.25
2022-09-06T04:26:42.654Z,101134.47
2022-09-06T04:29:10.730Z,101144.91
2022-09-06T04:31:40.539Z,101150.88
2022-09-06T04:34:08.453Z,101146.56
2022-09-06T04:36:37.489Z,101145.03
2022-09-06T04:39:06.770Z,101149.72
2022-09-06T04:41:34.852Z,101152.03
2022-09-06T04:44:05.820Z,101163.34
2022-09-06T04:46:33.903Z,101156.22
2022-09-06T04:49:03.418Z,101157.28
2022-09-06T04:51:31.748Z,101151.94
2022-09-06T04:53:59.720Z,101150.41
2022-09-06T04:56:28.380Z,101149.72
2022-09-06T04:58:56.823Z,101149.91
2022-09-06T05:01:26.514Z,101154.81
2022-09-06T05:03:56.923Z,101152.22
2022-09-06T05:06:26.840Z,101160.75
2022-09-06T05:08:54.664Z,101157.28
2022-09-06T05:11:22.867Z,101164.97
2022-09-06T05:13:51.668Z,101161.50
2022-09-06T05:16:19.801Z,101165.50
2022-09-06T05:18:47.832Z,101167.63
2022-09-06T05:21:16.160Z,101167.84
2022-09-06T05:23:45.912Z,101169.94
2022-09-06T05:26:14.017Z,101164.56
2022-09-06T05:28:42.097Z,101176.03
2022-09-06T05:31:11.014Z,101174.28
2022-09-06T05:33:39.443Z,101171.06
2022-09-06T05:36:08.359Z,101174.88
2022-09-06T05:38:36.442Z,101172.25
2022-09-06T05:41:06.204Z,101177.13
2022-09-06T05:43:35.733Z,101174.34
2022-09-06T05:46:05.570Z,101169.88
2022-09-06T05:48:37.051Z,101173.47
2022-09-06T05:51:06.568Z,101177.34
2022-09-06T05:53:35.751Z,101179.91
2022-09-06T05:56:06.093Z,101172.66
2022-09-06T05:58:34.176Z,101173.28
2022-09-06T06:01:06.170Z,101178.84
2022-09-06T06:03:34.538Z,101180.59
2022-09-06T06:06:02.394Z,101169.47
2022-09-06T06:08:30.705Z,101171.22
2022-09-06T06:10:59.987Z,101176.59
2022-09-06T06:13:34.893Z,101180.25
2022-09-06T06:16:04.019Z,101184.75
2022-09-06T06:18:32.032Z,101180.94
2022-09-06T06:21:10.193Z,101181.59
2022-09-06T06:23:38.286Z,101182.25
2022-09-06T06:26:07.183Z,101175.47
2022-09-06T06:28:37.489Z,101178.94
2022-09-06T06:31:06.348Z,101169.34
2022-09-06T06:33:36.365Z,101172.63
2022-09-06T06:36:07.091Z,101170.31
2022-09-06T06:38:36.355Z,101171.66
2022-09-06T06:41:07.182Z,101166.56
2022-09-06T06:43:40.804Z,101159.59
2022-09-06T06:46:09.671Z,101159.00
2022-09-06T06:48:39.731Z,101160.19
2022-09-06T06:51:08.050Z,101155.78
2022-09-06T06:53:36.741Z,101156.72
2022-09-06T06:56:14.416Z,101157.66
2022-09-06T06:58:44.776Z,101150.81
2022-09-06T07:01:14.001Z,101159.13
2022-09-06T07:03:42.436Z,101161.47
2022-09-06T07:06:10.867Z,101156.34
2022-09-06T07:08:39.495Z,101154.75
2022-09-06T07:11:07.943Z,101156.09
2022-09-06T07:13:36.378Z,101154.88
2022-09-06T07:16:09.989Z,101154.25
2022-09-06T07:18:42.173Z,101149.53
2022-09-06T07:24:07.637Z,101151.56
2022-09-06T07:26:37.595Z,101155.94
2022-09-06T07:29:06.272Z,101152.66
2022-09-06T07:34:26.418Z,101155.28
2022-09-06T07:36:54.755Z,101156.81
2022-09-06T07:39:23.112Z,101147.34
2022-09-06T07:41:51.259Z,101145.78
2022-09-06T07:44:20.069Z,101146.66
2022-09-06T07:46:49.425Z,101142.94
2022-09-06T07:49:17.548Z,101154.00
2022-09-06T07:51:45.520Z,101153.72
2022-09-06T07:54:29.969Z,101152.50
2022-09-06T07:56:58.845Z,101155.53
2022-09-06T07:59:27.666Z,101162.91
2022-09-06T08:01:57.305Z,101170.31
2022-09-06T08:04:25.351Z,101176.81
2022-09-06T08:09:41.917Z,101163.09
2022-09-06T08:12:09.992Z,101166.41
2022-09-06T08:14:39.415Z,101163.50
2022-09-06T08:17:09.040Z,101158.59
2022-09-06T08:19:37.505Z,101157.88
2022-09-06T08:22:05.479Z,101165.34
2022-09-06T08:24:35.932Z,101176.50
2022-09-06T08:27:04.006Z,101165.38
2022-09-06T08:29:31.970Z,101169.44
2022-09-06T08:32:00.247Z,101165.00
2022-09-06T08:34:29.688Z,101157.19
2022-09-06T08:36:57.698Z,101163.16
2022-09-06T08:39:26.250Z,101151.44
2022-09-06T08:41:56.451Z,101150.72
2022-09-06T08:47:21.607Z,101158.41
2022-09-06T08:49:53.106Z,101151.66
2022-09-06T08:52:26.933Z,101152.28
2022-09-06T08:54:56.945Z,101139.06
2022-09-06T08:57:34.180Z,101152.00
2022-09-06T09:00:10.456Z,101152.38
2022-09-06T09:02:43.298Z,101138.06
2022-09-06T09:05:18.901Z,101138.69
2022-09-06T09:07:49.165Z,101140.13
2022-09-06T09:10:21.335Z,101143.31
2022-09-06T09:12:50.518Z,101140.00
2022-09-06T09:15:20.107Z,101139.28
2022-09-06T09:17:48.908Z,101129.22
2022-09-06T09:20:18.673Z,101133.03
2022-09-06T09:22:47.468Z,101126.03
2022-09-06T09:25:19.629Z,101115.13
2022-09-06T09:27:48.315Z,101121.72
2022-09-06T09:33:21.915Z,101117.13
2022-09-06T09:35:51.579Z,101104.84
2022-09-06T09:38:24.766Z,101113.16
2022-09-06T09:40:54.200Z,101113.31
2022-09-06T09:43:23.602Z,101107.50
2022-09-06T09:46:11.298Z,101105.63
2022-09-06T09:48:43.292Z,101108.03
2022-09-06T09:51:26.982Z,101099.44
2022-09-06T09:53:56.008Z,101088.84
2022-09-06T09:56:28.771Z,101093.44
2022-09-06T09:58:58.111Z,101086.78
2022-09-06T10:01:28.066Z,101089.44
2022-09-06T10:09:37.114Z,101080.47
2022-09-06T10:12:07.068Z,101072.94
2022-09-06T10:14:42.716Z,101072.50
2022-09-06T10:17:33.711Z,101075.16
2022-09-06T10:20:04.055Z,101074.09
2022-09-06T10:22:36.467Z,101069.16
2022-09-06T10:25:15.478Z,101082.22
2022-09-06T10:28:10.576Z,101083.50
2022-09-06T10:30:42.489Z,101082.19
2022-09-06T10:33:15.600Z,101093.28
2022-09-06T10:35:43.662Z,101108.91
2022-09-06T10:38:30.582Z,101090.97
2022-09-06T10:41:09.129Z,101092.47
2022-09-06T10:43:42.725Z,101079.84
2022-09-06T10:46:13.266Z,101080.75
2022-09-06T10:48:42.492Z,101074.03
2022-09-06T10:51:18.831Z,101072.13
2022-09-06T10:53:49.213Z,101067.38
2022-09-06T10:56:22.554Z,101073.09
2022-09-06T11:01:47.802Z,101076.31
2022-09-06T11:04:20.317Z,101074.66
2022-09-06T11:06:52.357Z,101081.22
2022-09-06T11:09:24.839Z,101079.56
2022-09-06T11:12:01.109Z,101081.84
2022-09-06T11:14:30.138Z,101073.44
2022-09-06T11:17:05.081Z,101065.25
2022-09-06T11:19:35.167Z,101060.50
2022-09-06T11:22:16.938Z,101064.47
2022-09-06T11:25:06.127Z,101061.72
2022-09-06T11:27:37.690Z,101062.03
2022-09-06T11:30:09.740Z,101064.34
2022-09-06T11:32:40.103Z,101062.09
2022-09-06T11:35:10.331Z,101068.63
2022-09-06T11:37:40.953Z,101072.00
2022-09-06T11:40:29.408Z,101072.88
2022-09-06T11:43:12.732Z,101063.53
2022-09-06T11:45:46.236Z,101066.34
2022-09-06T11:48:35.433Z,101061.53
2022-09-06T11:51:09.047Z,101065.50
2022-09-06T11:53:57.866Z,101066.94
2022-09-06T11:56:29.666Z,101057.31
2022-09-06T11:59:01.587Z,101057.63
2022-09-06T12:01:41.114Z,101055.38
2022-09-06T12:04:10.557Z,101058.53
2022-09-06T12:06:43.946Z,101057.13
2022-09-06T12:09:33.755Z,101053.75
2022-09-06T12:12:01.975Z,101048.41
2022-09-06T12:14:46.999Z,101043.03
2022-09-06T12:17:23.669Z,101040.53
2022-09-06T12:19:53.084Z,101040.53
2022-09-06T12:22:40.363Z,101032.38
2022-09-06T12:25:17.137Z,101037.22
2022-09-06T12:27:53.581Z,101035.84
2022-09-06T12:30:34.512Z,101042.94
2022-09-06T12:33:03.777Z,101038.41
2022-09-06T12:38:24.887Z,101039.00
2022-09-06T12:40:58.453Z,101040.44
2022-09-06T12:43:27.530Z,101035.94
2022-09-06T12:46:00.803Z,101026.31
2022-09-06T12:48:31.376Z,101028.59
2022-09-06T12:51:03.674Z,101023.50
2022-09-06T12:53:32.212Z,101016.41
2022-09-06T12:56:04.613Z,101006.53
2022-09-06T12:58:32.817Z,101005.97
2022-09-06T13:01:05.092Z,101012.19
2022-09-06T13:03:36.676Z,101011.66
2022-09-06T13:06:06.299Z,101011.13
2022-09-06T13:08:35.948Z,101006.06
2022-09-06T13:11:05.347Z,101016.81
2022-09-06T13:13:33.549Z,101003.22
2022-09-06T13:16:01.929Z,101012.31
2022-09-06T13:18:35.586Z,101008.34
2022-09-06T13:21:04.983Z,101009.16
2022-09-06T13:23:41.225Z,100998.69
2022-09-06T13:26:09.546Z,101004.34
2022-09-06T13:28:37.774Z,101004.94
2022-09-06T13:31:11.167Z,100997.56
2022-09-06T13:33:41.349Z,100997.56
2022-09-06T13:36:23.244Z,100994.72
2022-09-06T13:38:51.940Z,100985.69
2022-09-06T13:41:41.125Z,100987.34
2022-09-06T13:44:21.475Z,100978.84
2022-09-06T13:46:55.283Z,100981.97
2022-09-06T13:49:25.408Z,100981.13
2022-09-06T13:51:54.091Z,100974.63
2022-09-06T13:54:22.896Z,100972.91
2022-09-06T13:56:51.337Z,100963.56
2022-09-06T13:59:19.948Z,100964.69
2022-09-06T14:01:49.404Z,100970.63
2022-09-06T14:04:21.525Z,100964.38
2022-09-06T14:06:51.567Z,100961.00
2022-09-06T14:09:19.532Z,100962.97
2022-09-06T14:11:48.513Z,100953.88
2022-09-06T14:14:17.872Z,100961.25
2022-09-06T14:16:46.424Z,100963.47
2022-09-06T14:19:14.626Z,100966.31
2022-09-06T14:21:43.437Z,100966.84
2022-09-06T14:24:13.300Z,100969.69
2022-09-06T14:26:41.749Z,100964.34
2022-09-06T14:29:10.076Z,100963.75
2022-09-06T14:31:38.979Z,100955.53
2022-09-06T14:34:07.077Z,100957.22
2022-09-06T14:36:35.749Z,100952.09
2022-09-06T14:39:04.345Z,100952.66
2022-09-06T14:41:34.062Z,100946.97
2022-09-06T14:44:05.024Z,100939.03
2022-09-06T14:46:34.707Z,100941.59
2022-09-06T14:49:03.647Z,100937.59
2022-09-06T14:51:37.914Z,100930.78
2022-09-06T14:54:07.673Z,100934.16
2022-09-06T14:56:38.148Z,100928.22
2022-09-06T14:59:06.865Z,100925.91
2022-09-06T15:01:38.516Z,100925.59
2022-09-06T15:04:08.038Z,100919.91
2022-09-06T15:06:37.034Z,100915.38
2022-09-06T15:09:06.733Z,100911.63
2022-09-06T15:11:36.360Z,100911.88
2022-09-06T15:14:07.934Z,100910.75
2022-09-06T15:16:36.366Z,100911.56
2022-09-06T15:19:04.805Z,100902.19
2022-09-06T15:21:33.609Z,100901.00
2022-09-06T15:24:02.665Z,100897.28
2022-09-06T15:26:31.562Z,100888.50
2022-09-06T15:28:59.691Z,100882.81
2022-09-06T15:31:29.949Z,100884.19
2022-09-06T15:33:58.608Z,100874.84
2022-09-06T15:36:27.606Z,100874.56
2022-09-06T15:38:59.898Z,100872.53
2022-09-06T15:41:29.532Z,100873.38
2022-09-06T15:43:58.449Z,100869.34
2022-09-06T15:46:43.583Z,100867.38
2022-09-06T15:49:12.259Z,100865.31
2022-09-06T15:51:42.277Z,100873.75
2022-09-06T15:54:11.055Z,100868.63
2022-09-06T15:56:38.455Z,100866.63
2022-09-06T15:59:07.148Z,100865.72
2022-09-06T16:01:35.858Z,100866.28
2022-09-06T16:04:06.857Z,100861.72
2022-09-06T16:06:36.381Z,100862.25
2022-09-06T16:09:06.166Z,100854.56
2022-09-06T16:11:37.024Z,100855.38
2022-09-06T16:14:06.055Z,100857.06
2022-09-06T16:16:35.069Z,100854.97
2022-09-06T16:19:03.628Z,100850.16
2022-09-06T16:21:35.308Z,100845.03
2022-09-06T16:24:07.227Z,100857.72
2022-09-06T16:26:39.275Z,100846.97
2022-09-06T16:29:08.429Z,100851.44
2022-09-06T16:31:40.317Z,100853.66
2022-09-06T16:34:09.044Z,100849.69
2022-09-06T16:36:38.918Z,100852.19
2022-09-06T16:39:07.969Z,100856.41
2022-09-06T16:41:39.563Z,100843.91
2022-09-06T16:44:07.959Z,100839.94
2022-09-06T16:46:40.241Z,100844.16
2022-09-06T16:49:08.686Z,100837.31
2022-09-06T16:51:36.885Z,100844.34
2022-09-06T16:54:07.017Z,100846.81
2022-09-06T16:56:36.027Z,100845.38
2022-09-06T16:59:05.817Z,100851.56
2022-09-06T17:01:34.385Z,100850.66
2022-09-06T17:04:02.980Z,100845.28
2022-09-06T17:06:31.607Z,100835.88
2022-09-06T17:08:59.966Z,100841.22
2022-09-06T17:11:30.173Z,100840.03
2022-09-06T17:13:58.732Z,100845.59
2022-09-06T17:16:44.492Z,100844.41
2022-09-06T17:19:14.094Z,100840.69
2022-09-06T17:21:42.667Z,100842.34
2022-09-06T17:24:10.855Z,100844.19
2022-09-06T17:26:40.516Z,100849.53
2022-09-06T17:29:09.059Z,100849.44
2022-09-06T17:31:38.230Z,100849.38
2022-09-06T17:34:07.770Z,100846.22
2022-09-06T17:36:36.560Z,100834.00
2022-09-06T17:39:05.944Z,100836.78
2022-09-06T17:41:36.576Z,100828.22
2022-09-06T17:44:06.908Z,100822.53
2022-09-06T17:46:38.959Z,100813.16
2022-09-06T17:49:12.794Z,100818.66
2022-09-06T17:51:41.003Z,100817.75
2022-09-06T17:54:09.928Z,100823.03
2022-09-06T17:56:38.229Z,100812.56
2022-09-06T17:59:09.093Z,100817.22
2022-09-06T18:01:38.436Z,100820.84
2022-09-06T18:04:06.949Z,100826.13
2022-09-06T18:06:36.199Z,100828.63
2022-09-06T18:09:05.127Z,100826.31
2022-09-06T18:11:39.136Z,100825.97
2022-09-06T18:14:09.510Z,100829.28
2022-09-06T18:16:38.367Z,100818.53
2022-09-06T18:19:06.917Z,100824.94
2022-09-06T18:21:35.564Z,100822.88
2022-09-06T18:24:03.668Z,100822.53
2022-09-06T18:26:31.420Z,100817.66
2022-09-06T18:28:59.125Z,100817.31
2022-09-06T18:31:28.738Z,100823.72
2022-09-06T18:33:58.797Z,100820.78
2022-09-06T18:36:32.200Z,100824.13
2022-09-06T18:39:02.644Z,100824.88
2022-09-06T18:41:47.764Z,100830.44
2022-09-06T18:44:16.042Z,100825.53
2022-09-06T18:46:45.203Z,100821.53
2022-09-06T18:49:15.283Z,100823.13
2022-09-06T18:51:43.368Z,100823.88
2022-09-06T18:54:11.393Z,100824.38
2022-09-06T18:56:39.258Z,100821.47
2022-09-06T18:59:07.710Z,100813.53
2022-09-06T19:01:36.540Z,100811.19
2022-09-06T19:04:06.461Z,100813.69
2022-09-06T19:06:34.945Z,100820.41
2022-09-06T19:09:03.586Z,100814.16
2022-09-06T19:11:31.349Z,100809.41
2022-09-06T19:13:59.266Z,100810.25
2022-09-06T19:16:28.209Z,100809.41
2022-09-06T19:18:56.886Z,100799.84
2022-09-06T19:21:27.462Z,100803.53
2022-09-06T19:23:56.855Z,100793.97
2022-09-06T19:26:25.516Z,100795.94
2022-09-06T19:28:54.754Z,100801.56
2022-09-06T19:31:23.282Z,100796.19
2022-09-06T19:33:51.719Z,100797.53
2022-09-06T19:36:19.999Z,100791.34
2022-09-06T19:39:05.605Z,100799.41
2022-09-06T19:41:34.615Z,100799.56
2022-09-06T19:44:05.425Z,100793.84
2022-09-06T19:46:33.575Z,100784.44
2022-09-06T19:49:02.180Z,100787.34
2022-09-06T19:51:30.783Z,100782.72
2022-09-06T19:54:00.122Z,100792.16
2022-09-06T19:56:30.041Z,100779.59
2022-09-06T19:58:59.093Z,100785.34
2022-09-06T20:01:29.216Z,100796.72
2022-09-06T20:03:58.307Z,100787.56
2022-09-06T20:06:26.759Z,100788.56
2022-09-06T20:08:55.019Z,100794.28
2022-09-06T20:11:25.082Z,100789.63
2022-09-06T20:13:52.900Z,100795.13
2022-09-06T20:16:21.199Z,100790.50
2022-09-06T20:18:49.423Z,100791.22
2022-09-06T20:21:18.450Z,100796.97
2022-09-06T20:23:49.326Z,100797.31
2022-09-06T20:26:17.504Z,100796.13
2022-09-06T20:28:47.338Z,100791.97
2022-09-06T20:31:16.566Z,100799.97
2022-09-06T20:33:49.159Z,100805.44
2022-09-06T20:36:18.019Z,100799.44
2022-09-06T20:38:46.122Z,100797.63
2022-09-06T20:41:15.344Z,100795.28
2022-09-06T20:43:43.325Z,100799.91
2022-09-06T20:46:14.573Z,100797.56
2022-09-06T20:48:44.998Z,100800.88
2022-09-06T20:51:13.853Z,100804.16
2022-09-06T20:53:41.705Z,100804.38
2022-09-06T20:56:10.790Z,100802.09
2022-09-06T20:58:39.233Z,100805.34
2022-09-06T21:01:08.545Z,100808.63
2022-09-06T21:03:39.395Z,100812.78
2022-09-06T21:06:07.533Z,100806.56
2022-09-06T21:08:40.572Z,100801.41
2022-09-06T21:11:10.356Z,100815.44
2022-09-06T21:13:38.640Z,100806.34
2022-09-06T21:16:06.668Z,100810.28
2022-09-06T21:18:34.992Z,100818.06
2022-09-06T21:21:05.377Z,100817.44
2022-09-06T21:23:34.300Z,100809.03
2022-09-06T21:26:03.145Z,100811.22
2022-09-06T21:28:31.788Z,100824.38
2022-09-06T21:31:03.144Z,100812.56
2022-09-06T21:33:31.374Z,100813.88
2022-09-06T21:36:00.423Z,100816.06
2022-09-06T21:38:29.849Z,100820.81
2022-09-06T21:40:57.978Z,100827.78
2022-09-06T21:43:25.805Z,100812.50
2022-09-06T21:45:53.534Z,100804.53
2022-09-06T21:48:21.413Z,100793.81
2022-09-06T21:50:49.399Z,100788.06
2022-09-06T21:53:17.441Z,100777.56
2022-09-06T21:55:46.513Z,100769.88
2022-09-06T21:58:14.732Z,100772.50
2022-09-06T22:00:42.506Z,100761.59
2022-09-06T22:03:10.631Z,100761.22
2022-09-06T22:05:38.330Z,100753.75
2022-09-06T22:08:06.106Z,100747.13
2022-09-06T22:10:33.792Z,100747.84
2022-09-06T22:13:02.972Z,100753.06
2022-09-06T22:15:30.689Z,100738.66
2022-09-06T22:17:58.367Z,100740.00
2022-09-06T22:20:26.073Z,100727.53
2022-09-06T22:22:53.810Z,100715.97
2022-09-06T22:25:21.539Z,100722.25
2022-09-06T22:27:49.261Z,100727.22
2022-09-06T22:30:20.688Z,100721.25
2022-09-06T22:32:50.388Z,100715.47
2022-09-06T22:35:18.162Z,100706.69
2022-09-06T22:37:45.891Z,100701.53
2022-09-06T22:40:13.697Z,100701.16
2022-09-06T22:42:41.544Z,100693.44
2022-09-06T22:45:09.706Z,100691.13
2022-09-06T22:47:38.797Z,100679.28
2022-09-06T22:50:07.096Z,100675.88
2022-09-06T22:52:34.846Z,100682.53
2022-09-06T22:55:02.726Z,100681.69
2022-09-06T22:57:30.485Z,100684.72
2022-09-06T22:59:59.920Z,100693.97
2022-09-06T23:02:27.613Z,100680.84
2022-09-06T23:04:57.813Z,100676.09
2022-09-06T23:07:25.647Z,100680.84
2022-09-06T23:09:53.411Z,100701.28
2022-09-06T23:12:21.206Z,100703.00
2022-09-06T23:14:48.955Z,100739.38
2022-09-06T23:17:16.784Z,100921.09
2022-09-06T23:19:44.516Z,100907.31
2022-09-06T23:22:13.680Z,100905.81
2022-09-06T23:24:41.424Z,100903.94
2022-09-06T23:27:09.323Z,100918.19
2022-09-06T23:29:37.040Z,100922.56
2022-09-06T23:32:04.759Z,100941.16
2022-09-06T23:34:32.481Z,100957.72
2022-09-06T23:37:00.310Z,100965.34
2022-09-06T23:39:29.596Z,100970.13
2022-09-06T23:41:57.387Z,100974.00
2022-09-06T23:44:25.201Z,100960.06
2022-09-06T23:46:53.033Z,100957.50
2022-09-06T23:49:20.859Z,100978.78
2022-09-06T23:51:48.564Z,100986.31
2022-09-06T23:54:16.227Z,100999.19
2022-09-06T23:56:45.376Z,100997.03
2022-09-06T23:59:13.077Z,100986.47
